createdAt,value
2023-01-22T00:01:19.669Z,130.43
2023-01-22T00:03:49.401Z,127.87
2023-01-22T00:06:17.277Z,112.03
2023-01-22T00:08:44.609Z,112.67
2023-01-22T00:11:12.363Z,127.97
2023-01-22T00:13:40.169Z,109.55
2023-01-22T00:16:10.171Z,124.13
2023-01-22T00:18:37.460Z,116.53
2023-01-22T00:21:05.139Z,124.47
2023-01-22T00:23:33.311Z,114.40
2023-01-22T00:26:06.354Z,123.47
2023-01-22T00:28:34.189Z,111.27
2023-01-22T00:31:04.513Z,121.87
2023-01-22T00:33:32.906Z,119.00
2023-01-22T00:36:09.294Z,123.87
2023-01-22T00:38:36.832Z,122.93
2023-01-22T00:41:07.476Z,125.87
2023-01-22T00:43:38.784Z,114.27
2023-01-22T00:46:08.986Z,117.50
2023-01-22T00:48:37.117Z,114.20
2023-01-22T00:51:05.523Z,113.53
2023-01-22T00:53:33.100Z,122.30
2023-01-22T00:56:03.471Z,114.33
2023-01-22T00:58:31.084Z,117.10
2023-01-22T01:00:58.871Z,99.20
2023-01-22T01:03:32.500Z,111.50
2023-01-22T01:06:18.394Z,109.27
2023-01-22T01:08:48.467Z,109.33
2023-01-22T01:11:25.297Z,107.70
2023-01-22T01:13:53.465Z,100.77
2023-01-22T01:16:29.826Z,101.27
2023-01-22T01:19:07.952Z,91.03
2023-01-22T01:21:36.517Z,92.70
2023-01-22T01:24:04.792Z,93.30
2023-01-22T01:26:33.587Z,87.82
2023-01-22T01:29:04.940Z,87.07
2023-01-22T01:31:32.267Z,81.47
2023-01-22T01:34:00.114Z,88.57
2023-01-22T01:36:47.269Z,79.75
2023-01-22T01:39:15.437Z,80.67
2023-01-22T01:41:42.660Z,83.73
2023-01-22T01:44:19.827Z,85.90
2023-01-22T01:46:56.338Z,86.83
2023-01-22T01:49:51.382Z,80.40
2023-01-22T01:52:20.697Z,85.77
2023-01-22T01:54:56.806Z,82.23
2023-01-22T01:57:30.555Z,81.47
2023-01-22T02:00:00.301Z,77.93
2023-01-22T02:02:27.606Z,80.13
2023-01-22T02:04:56.577Z,74.97
2023-01-22T02:07:23.940Z,74.30
2023-01-22T02:09:51.572Z,80.17
2023-01-22T02:12:18.930Z,71.57
2023-01-22T02:14:48.841Z,78.10
2023-01-22T02:17:21.403Z,71.10
2023-01-22T02:19:49.174Z,71.00
2023-01-22T02:22:26.179Z,70.20
2023-01-22T02:24:53.719Z,73.60
2023-01-22T02:27:21.502Z,71.70
2023-01-22T02:29:49.524Z,63.73
2023-01-22T02:32:16.987Z,65.60
2023-01-22T02:34:44.871Z,65.90
2023-01-22T02:37:12.602Z,59.53
2023-01-22T02:39:40.348Z,66.47
2023-01-22T02:42:09.019Z,60.73
2023-01-22T02:44:36.747Z,55.80
2023-01-22T02:47:04.377Z,55.93
2023-01-22T02:49:32.154Z,62.50
2023-01-22T02:51:59.446Z,60.97
2023-01-22T02:54:27.130Z,60.47
2023-01-22T02:56:54.463Z,61.03
2023-01-22T02:59:22.166Z,57.37
2023-01-22T03:01:49.601Z,62.00
2023-01-22T03:04:17.256Z,55.53
2023-01-22T03:06:46.695Z,59.07
2023-01-22T03:09:17.613Z,59.27
2023-01-22T03:11:47.184Z,54.33
2023-01-22T03:14:34.050Z,51.33
2023-01-22T03:17:20.490Z,52.80
2023-01-22T03:20:06.893Z,57.13
2023-01-22T03:22:34.301Z,50.57
2023-01-22T03:25:02.740Z,55.87
2023-01-22T03:27:31.947Z,53.43
2023-01-22T03:29:59.525Z,51.13
2023-01-22T03:32:26.968Z,50.57
2023-01-22T03:34:54.517Z,52.60
2023-01-22T03:37:21.971Z,49.73
2023-01-22T03:39:49.538Z,47.87
2023-01-22T03:42:16.802Z,42.57
2023-01-22T03:44:44.684Z,43.90
2023-01-22T03:47:11.925Z,40.23
2023-01-22T03:49:39.431Z,41.67
2023-01-22T03:52:06.728Z,37.33
2023-01-22T03:54:34.631Z,38.60
2023-01-22T03:57:01.890Z,38.00
2023-01-22T03:59:29.447Z,32.90
2023-01-22T04:01:56.763Z,34.37
2023-01-22T04:04:24.485Z,32.23
2023-01-22T04:06:51.824Z,33.60
2023-01-22T04:09:19.471Z,32.77
2023-01-22T04:11:46.865Z,29.27
2023-01-22T04:14:14.469Z,29.63
2023-01-22T04:16:41.840Z,28.50
2023-01-22T04:19:10.463Z,29.27
2023-01-22T04:21:37.934Z,31.60
2023-01-22T04:24:05.958Z,28.50
2023-01-22T04:26:33.238Z,29.13
2023-01-22T04:29:00.851Z,29.60
2023-01-22T04:31:28.273Z,25.70
2023-01-22T04:33:55.992Z,26.90
2023-01-22T04:36:23.475Z,29.93
2023-01-22T04:38:51.051Z,24.98
2023-01-22T04:41:18.367Z,34.10
2023-01-22T04:43:46.039Z,28.83
2023-01-22T04:46:13.385Z,26.33
2023-01-22T04:48:40.966Z,24.43
2023-01-22T04:51:08.389Z,24.63
2023-01-22T04:53:35.944Z,24.80
2023-01-22T04:56:03.482Z,24.20
2023-01-22T04:58:31.112Z,24.43
2023-01-22T05:00:58.901Z,22.70
2023-01-22T05:03:26.666Z,20.63
2023-01-22T05:05:53.927Z,26.07
2023-01-22T05:08:21.485Z,20.93
2023-01-22T05:10:48.791Z,22.27
2023-01-22T05:13:16.406Z,23.97
2023-01-22T05:15:43.807Z,22.63
2023-01-22T05:18:11.380Z,22.63
2023-01-22T05:20:39.089Z,22.90
2023-01-22T05:23:06.690Z,22.83
2023-01-22T05:25:34.012Z,24.27
2023-01-22T05:28:01.910Z,24.37
2023-01-22T05:30:29.251Z,23.27
2023-01-22T05:32:57.778Z,24.60
2023-01-22T05:35:25.283Z,24.70
2023-01-22T05:37:52.916Z,24.83
2023-01-22T05:40:20.613Z,28.40
2023-01-22T05:42:48.436Z,30.00
2023-01-22T05:45:15.784Z,29.33
2023-01-22T05:47:43.339Z,27.33
2023-01-22T05:50:11.161Z,24.77
2023-01-22T05:52:38.735Z,24.83
2023-01-22T05:55:06.702Z,27.00
2023-01-22T05:57:35.692Z,23.33
2023-01-22T06:00:05.210Z,27.37
2023-01-22T06:02:32.911Z,26.70
2023-01-22T06:05:00.297Z,31.40
2023-01-22T06:07:30.952Z,28.07
2023-01-22T06:09:58.251Z,24.70
2023-01-22T06:12:25.941Z,26.70
2023-01-22T06:14:56.101Z,26.20
2023-01-22T06:17:24.311Z,22.07
2023-01-22T06:19:51.624Z,21.53
2023-01-22T06:22:19.340Z,22.00
2023-01-22T06:24:46.669Z,23.90
2023-01-22T06:27:14.271Z,25.63
2023-01-22T06:29:41.511Z,24.87
2023-01-22T06:32:09.201Z,25.77
2023-01-22T06:34:37.655Z,24.47
2023-01-22T06:37:05.780Z,26.60
2023-01-22T06:39:33.107Z,28.00
2023-01-22T06:42:00.722Z,26.70
2023-01-22T06:44:27.979Z,26.27
2023-01-22T06:46:55.594Z,23.43
2023-01-22T06:49:22.841Z,24.37
2023-01-22T06:51:50.434Z,25.60
2023-01-22T06:54:17.702Z,24.33
2023-01-22T06:56:45.313Z,24.93
2023-01-22T06:59:12.536Z,27.10
2023-01-22T07:01:40.255Z,28.00
2023-01-22T07:04:07.579Z,28.07
2023-01-22T07:06:35.186Z,23.30
2023-01-22T07:09:02.524Z,26.33
2023-01-22T07:11:30.021Z,26.07
2023-01-22T07:13:57.335Z,29.60
2023-01-22T07:16:24.996Z,28.10
2023-01-22T07:18:52.271Z,27.20
2023-01-22T07:21:19.805Z,27.57
2023-01-22T07:23:47.094Z,28.70
2023-01-22T07:26:16.034Z,28.00
2023-01-22T07:28:44.980Z,30.73
2023-01-22T07:31:14.014Z,30.23
2023-01-22T07:33:42.255Z,30.13
2023-01-22T07:36:10.015Z,29.83
2023-01-22T07:38:37.253Z,27.30
2023-01-22T07:41:17.005Z,32.63
2023-01-22T07:43:49.482Z,35.70
2023-01-22T07:46:17.181Z,38.77
2023-01-22T07:48:46.003Z,38.50
2023-01-22T07:51:13.705Z,36.80
2023-01-22T07:53:42.816Z,37.40
2023-01-22T07:56:10.641Z,36.70
2023-01-22T07:58:39.465Z,38.67
2023-01-22T08:01:08.467Z,38.70
2023-01-22T08:03:37.872Z,40.67
2023-01-22T08:06:17.493Z,39.80
2023-01-22T08:08:44.740Z,36.07
2023-01-22T08:11:13.645Z,33.93
2023-01-22T08:13:41.358Z,31.87
2023-01-22T08:16:09.569Z,40.00
2023-01-22T08:18:38.422Z,36.63
2023-01-22T08:21:06.509Z,34.17
2023-01-22T08:23:33.801Z,38.53
2023-01-22T08:26:04.161Z,39.90
2023-01-22T08:28:32.046Z,44.40
2023-01-22T08:31:02.761Z,42.37
2023-01-22T08:33:33.957Z,45.07
2023-01-22T08:36:01.570Z,45.67
2023-01-22T08:38:28.941Z,43.10
2023-01-22T08:40:56.559Z,34.00
2023-01-22T08:43:24.033Z,34.17
2023-01-22T08:45:51.874Z,35.63
2023-01-22T08:48:19.225Z,32.97
2023-01-22T08:50:46.980Z,34.03
2023-01-22T08:53:14.438Z,38.87
2023-01-22T08:55:42.106Z,36.63
2023-01-22T08:58:10.135Z,38.07
2023-01-22T09:00:37.828Z,37.50
2023-01-22T09:03:05.113Z,39.20
2023-01-22T09:05:32.732Z,40.13
2023-01-22T09:08:00.119Z,41.47
2023-01-22T09:10:27.775Z,33.00
2023-01-22T09:12:55.180Z,41.33
2023-01-22T09:15:22.845Z,42.33
2023-01-22T09:17:50.183Z,39.03
2023-01-22T09:20:18.279Z,37.83
2023-01-22T09:22:47.204Z,36.80
2023-01-22T09:25:16.147Z,37.85
2023-01-22T09:27:43.912Z,42.53
2023-01-22T09:30:14.495Z,39.53
2023-01-22T09:32:42.034Z,38.37
2023-01-22T09:35:10.251Z,38.33
2023-01-22T09:37:37.550Z,39.77
2023-01-22T09:40:05.859Z,39.73
2023-01-22T09:42:40.514Z,36.07
2023-01-22T09:45:13.999Z,36.73
2023-01-22T09:47:49.369Z,39.70
2023-01-22T09:50:23.510Z,42.60
2023-01-22T09:52:55.270Z,36.70
2023-01-22T09:55:28.519Z,38.70
2023-01-22T09:58:00.492Z,36.70
2023-01-22T10:00:41.447Z,37.80
2023-01-22T10:03:36.829Z,42.20
2023-01-22T10:06:15.087Z,39.22
2023-01-22T10:09:16.326Z,43.75
2023-01-22T10:11:52.451Z,48.28
2023-01-22T10:14:23.752Z,43.40
2023-01-22T10:16:52.279Z,50.97
2023-01-22T10:19:41.787Z,39.00
2023-01-22T10:22:22.485Z,33.07
2023-01-22T10:24:51.052Z,27.10
2023-01-22T10:27:40.026Z,30.10
2023-01-22T10:30:24.307Z,30.85
2023-01-22T10:33:06.914Z,26.20
2023-01-22T10:35:47.328Z,24.33
2023-01-22T10:38:35.165Z,24.67
2023-01-22T10:41:04.554Z,30.10
2023-01-22T10:43:38.580Z,25.57
2023-01-22T10:46:17.853Z,25.98
2023-01-22T10:48:45.486Z,26.47
2023-01-22T10:51:22.448Z,27.00
2023-01-22T10:53:56.985Z,30.35
2023-01-22T10:56:38.672Z,31.55
2023-01-22T10:59:29.727Z,29.73
2023-01-22T11:02:12.041Z,31.55
2023-01-22T11:04:40.015Z,37.63
2023-01-22T11:07:20.954Z,33.90
2023-01-22T11:10:17.467Z,33.80
2023-01-22T11:12:52.352Z,33.15
2023-01-22T11:15:29.655Z,32.38
2023-01-22T11:18:02.706Z,38.95
2023-01-22T11:20:55.279Z,38.97
2023-01-22T11:23:31.338Z,39.05
2023-01-22T11:26:27.201Z,41.00
2023-01-22T11:29:30.590Z,33.90
2023-01-22T11:32:32.752Z,43.80
2023-01-22T11:35:27.884Z,42.92
2023-01-22T11:38:04.976Z,38.20
2023-01-22T11:40:36.401Z,35.53
2023-01-22T11:43:33.185Z,37.28
2023-01-22T11:46:17.576Z,29.98
2023-01-22T11:49:08.369Z,42.58
2023-01-22T11:52:02.710Z,38.55
2023-01-22T11:54:53.510Z,34.95
2023-01-22T11:57:47.066Z,40.03
2023-01-22T12:00:35.247Z,43.10
2023-01-22T12:03:37.840Z,36.42
2023-01-22T12:06:13.000Z,34.25
2023-01-22T12:08:58.360Z,44.73
2023-01-22T12:11:59.939Z,40.83
2023-01-22T12:14:48.107Z,52.03
2023-01-22T12:17:54.891Z,44.45
2023-01-22T12:21:07.826Z,45.83
2023-01-22T12:24:04.085Z,50.63
2023-01-22T12:26:38.112Z,45.00
2023-01-22T12:29:18.611Z,49.10
2023-01-22T12:32:09.328Z,50.25
2023-01-22T12:35:05.590Z,37.80
2023-01-22T12:37:49.872Z,48.75
2023-01-22T12:40:35.557Z,52.88
2023-01-22T12:43:08.198Z,51.45
2023-01-22T12:45:45.503Z,43.03
2023-01-22T12:48:42.978Z,49.85
2023-01-22T12:51:46.262Z,41.38
2023-01-22T12:54:35.453Z,50.53
2023-01-22T12:57:14.875Z,43.30
2023-01-22T12:59:50.913Z,48.80
2023-01-22T13:02:38.875Z,44.60
2023-01-22T13:05:20.260Z,45.17
2023-01-22T13:07:50.203Z,49.15
2023-01-22T13:10:23.238Z,62.83
2023-01-22T13:13:17.331Z,72.43
2023-01-22T13:15:53.652Z,77.68
2023-01-22T13:18:28.289Z,74.47
2023-01-22T13:21:08.653Z,71.40
2023-01-22T13:23:43.719Z,64.50
2023-01-22T13:26:24.905Z,65.17
2023-01-22T13:29:04.352Z,64.47
2023-01-22T13:31:33.016Z,60.73
2023-01-22T13:34:09.076Z,59.78
2023-01-22T13:36:46.406Z,66.13
2023-01-22T13:39:33.034Z,64.35
2023-01-22T13:42:05.166Z,55.40
2023-01-22T13:44:43.488Z,49.97
2023-01-22T13:47:40.203Z,48.90
2023-01-22T13:50:24.537Z,41.35
2023-01-22T13:52:52.186Z,41.33
2023-01-22T13:55:25.016Z,44.30
2023-01-22T13:57:56.877Z,56.00
2023-01-22T14:00:36.930Z,59.97
2023-01-22T14:03:23.116Z,48.33
2023-01-22T14:05:50.803Z,43.28
2023-01-22T14:08:18.901Z,41.80
2023-01-22T14:10:58.439Z,38.67
2023-01-22T14:13:26.124Z,35.60
2023-01-22T14:16:00.286Z,40.75
2023-01-22T14:18:31.066Z,41.20
2023-01-22T14:20:58.985Z,41.58
2023-01-22T14:23:26.363Z,42.90
2023-01-22T14:25:55.748Z,39.08
2023-01-22T14:28:25.208Z,48.65
2023-01-22T14:30:53.154Z,47.33
2023-01-22T14:33:26.243Z,45.17
2023-01-22T14:35:54.713Z,65.13
2023-01-22T14:38:22.793Z,59.25
2023-01-22T14:40:50.674Z,60.95
2023-01-22T14:43:18.749Z,62.30
2023-01-22T14:45:47.194Z,68.77
2023-01-22T14:48:18.351Z,66.50
2023-01-22T14:50:46.132Z,63.97
2023-01-22T14:53:15.594Z,57.67
2023-01-22T14:55:43.848Z,60.92
2023-01-22T14:58:11.751Z,54.07
2023-01-22T15:00:39.999Z,57.60
2023-01-22T15:03:07.422Z,59.03
2023-01-22T15:05:35.830Z,55.50
2023-01-22T15:08:03.477Z,60.08
2023-01-22T15:10:31.695Z,50.35
2023-01-22T15:12:59.403Z,58.35
2023-01-22T15:15:28.506Z,54.72
2023-01-22T15:17:57.777Z,59.03
2023-01-22T15:20:26.486Z,58.53
2023-01-22T15:22:53.752Z,56.15
2023-01-22T15:25:21.368Z,63.30
2023-01-22T15:27:48.810Z,61.40
2023-01-22T15:30:16.949Z,70.68
2023-01-22T15:32:44.346Z,62.42
2023-01-22T15:35:12.013Z,72.82
2023-01-22T15:37:39.379Z,66.78
2023-01-22T15:40:09.823Z,67.68
2023-01-22T15:42:37.493Z,71.28
2023-01-22T15:45:06.957Z,71.03
2023-01-22T15:47:34.475Z,61.28
2023-01-22T15:50:02.041Z,60.60
2023-01-22T15:52:29.611Z,58.37
2023-01-22T15:54:57.933Z,53.60
2023-01-22T15:57:25.249Z,59.45
2023-01-22T15:59:52.946Z,88.32
2023-01-22T16:02:20.331Z,74.80
2023-01-22T16:04:48.047Z,99.72
2023-01-22T16:07:15.411Z,80.37
2023-01-22T16:09:43.303Z,75.78
2023-01-22T16:12:10.682Z,67.33
2023-01-22T16:14:38.288Z,69.17
2023-01-22T16:17:06.060Z,66.80
2023-01-22T16:19:34.692Z,63.33
2023-01-22T16:22:02.170Z,55.60
2023-01-22T16:24:29.874Z,60.10
2023-01-22T16:26:57.176Z,58.97
2023-01-22T16:29:24.773Z,60.00
2023-01-22T16:31:52.303Z,58.77
2023-01-22T16:34:21.686Z,57.07
2023-01-22T16:36:49.312Z,62.38
2023-01-22T16:39:22.552Z,55.90
2023-01-22T16:41:51.792Z,57.22
2023-01-22T16:44:27.402Z,54.63
2023-01-22T16:46:59.930Z,67.55
2023-01-22T16:49:33.705Z,59.95
2023-01-22T16:52:20.642Z,66.50
2023-01-22T16:54:50.065Z,59.50
2023-01-22T16:57:19.385Z,62.80
2023-01-22T16:59:46.990Z,58.35
2023-01-22T17:02:16.857Z,55.13
2023-01-22T17:04:45.302Z,58.35
2023-01-22T17:07:27.423Z,66.63
2023-01-22T17:09:59.775Z,56.30
2023-01-22T17:12:27.484Z,63.28
2023-01-22T17:14:55.082Z,54.63
2023-01-22T17:17:22.404Z,61.65
2023-01-22T17:19:49.959Z,49.88
2023-01-22T17:22:17.227Z,80.95
2023-01-22T17:24:44.817Z,93.13
2023-01-22T17:27:18.272Z,85.35
2023-01-22T17:29:45.911Z,73.23
2023-01-22T17:32:13.240Z,63.22
2023-01-22T17:34:42.024Z,56.80
2023-01-22T17:37:11.230Z,48.67
2023-01-22T17:39:39.758Z,51.67
2023-01-22T17:42:07.124Z,44.40
2023-01-22T17:44:35.013Z,53.70
2023-01-22T17:47:03.503Z,52.83
2023-01-22T17:49:33.401Z,49.83
2023-01-22T17:52:00.886Z,49.57
2023-01-22T17:54:28.732Z,50.00
2023-01-22T17:56:56.061Z,45.20
2023-01-22T17:59:25.521Z,48.78
2023-01-22T18:01:53.058Z,42.63
2023-01-22T18:04:20.684Z,50.35
2023-01-22T18:06:50.191Z,44.87
2023-01-22T18:09:18.326Z,49.27
2023-01-22T18:11:45.712Z,54.30
2023-01-22T18:14:21.724Z,52.40
2023-01-22T18:16:50.623Z,54.63
2023-01-22T18:19:18.910Z,50.50
2023-01-22T18:21:46.316Z,48.85
2023-01-22T18:24:14.346Z,45.97
2023-01-22T18:26:42.419Z,45.95
2023-01-22T18:29:11.589Z,47.83
2023-01-22T18:31:40.055Z,45.30
2023-01-22T18:34:15.367Z,47.20
2023-01-22T18:36:44.161Z,45.50
2023-01-22T18:39:16.554Z,47.78
2023-01-22T18:41:45.249Z,52.63
2023-01-22T18:44:16.328Z,48.70
2023-01-22T18:46:47.563Z,50.25
2023-01-22T18:49:18.925Z,49.58
2023-01-22T18:51:47.215Z,40.38
2023-01-22T18:54:16.109Z,43.72
2023-01-22T18:56:43.578Z,43.95
2023-01-22T18:59:13.100Z,44.07
2023-01-22T19:01:41.181Z,42.33
2023-01-22T19:04:12.147Z,41.37
2023-01-22T19:06:39.688Z,41.33
2023-01-22T19:09:14.263Z,38.07
2023-01-22T19:11:47.152Z,45.22
2023-01-22T19:14:18.832Z,51.23
2023-01-22T19:16:48.962Z,40.17
2023-01-22T19:19:17.458Z,47.40
2023-01-22T19:21:49.239Z,38.63
2023-01-22T19:24:22.408Z,47.67
2023-01-22T19:26:51.477Z,42.38
2023-01-22T19:29:19.414Z,58.23
2023-01-22T19:31:53.948Z,57.90
2023-01-22T19:34:23.917Z,57.27
2023-01-22T19:36:55.959Z,58.83
2023-01-22T19:39:28.360Z,50.00
2023-01-22T19:41:56.907Z,47.35
2023-01-22T19:44:24.719Z,44.58
2023-01-22T19:46:53.023Z,59.60
2023-01-22T19:49:21.244Z,57.92
2023-01-22T19:51:48.863Z,61.28
2023-01-22T19:54:17.724Z,56.72
2023-01-22T19:56:46.009Z,56.00
2023-01-22T19:59:19.194Z,61.60
2023-01-22T20:01:48.784Z,54.53
2023-01-22T20:04:30.874Z,51.03
2023-01-22T20:07:02.079Z,53.85
2023-01-22T20:09:31.050Z,57.23
2023-01-22T20:11:59.795Z,57.38
2023-01-22T20:14:33.633Z,49.93
2023-01-22T20:17:03.320Z,58.38
2023-01-22T20:19:31.868Z,56.20
2023-01-22T20:22:10.964Z,50.47
2023-01-22T20:24:41.215Z,47.47
2023-01-22T20:27:09.453Z,51.00
2023-01-22T20:29:39.948Z,49.80
2023-01-22T20:32:07.964Z,50.33
2023-01-22T20:34:35.788Z,43.78
2023-01-22T20:37:03.350Z,46.78
2023-01-22T20:39:30.917Z,47.00
2023-01-22T20:41:58.231Z,53.70
2023-01-22T20:44:26.147Z,47.10
2023-01-22T20:46:53.562Z,49.25
2023-01-22T20:49:21.193Z,51.95
2023-01-22T20:51:48.663Z,50.78
2023-01-22T20:54:18.447Z,46.63
2023-01-22T20:56:46.598Z,49.17
2023-01-22T20:59:18.541Z,47.72
2023-01-22T21:01:46.644Z,47.58
2023-01-22T21:04:18.386Z,48.83
2023-01-22T21:06:45.736Z,53.50
2023-01-22T21:09:13.665Z,47.33
2023-01-22T21:11:42.294Z,53.17
2023-01-22T21:14:20.630Z,45.78
2023-01-22T21:16:49.174Z,44.25
2023-01-22T21:19:23.108Z,56.20
2023-01-22T21:21:51.249Z,66.90
2023-01-22T21:24:19.818Z,76.18
2023-01-22T21:26:47.146Z,69.47
2023-01-22T21:29:21.770Z,71.88
2023-01-22T21:31:52.846Z,61.83
2023-01-22T21:34:23.856Z,54.13
2023-01-22T21:36:54.309Z,44.93
2023-01-22T21:39:29.731Z,48.93
2023-01-22T21:42:16.444Z,43.53
2023-01-22T21:45:03.618Z,43.58
2023-01-22T21:47:31.240Z,42.38
2023-01-22T21:49:58.972Z,47.15
2023-01-22T21:52:26.582Z,40.40
2023-01-22T21:54:54.171Z,41.75
2023-01-22T21:57:21.452Z,45.75
2023-01-22T21:59:49.119Z,39.20
2023-01-22T22:02:18.909Z,34.63
2023-01-22T22:04:46.645Z,33.33
2023-01-22T22:07:14.403Z,28.67
2023-01-22T22:09:44.306Z,36.00
2023-01-22T22:12:11.970Z,35.05
2023-01-22T22:14:39.610Z,35.15
2023-01-22T22:17:07.801Z,30.17
2023-01-22T22:19:35.326Z,31.07
2023-01-22T22:22:02.706Z,30.07
2023-01-22T22:24:30.301Z,34.03
2023-01-22T22:26:57.585Z,35.87
2023-01-22T22:29:25.244Z,29.58
2023-01-22T22:31:52.624Z,29.25
2023-01-22T22:34:20.295Z,26.73
2023-01-22T22:36:47.579Z,25.15
2023-01-22T22:39:15.159Z,42.13
2023-01-22T22:41:42.440Z,40.40
2023-01-22T22:44:10.912Z,46.53
2023-01-22T22:46:40.013Z,49.65
2023-01-22T22:49:11.866Z,43.20
2023-01-22T22:51:42.523Z,33.90
2023-01-22T22:54:19.718Z,33.63
2023-01-22T22:56:49.032Z,32.90
2023-01-22T22:59:19.857Z,33.85
2023-01-22T23:01:51.558Z,33.58
2023-01-22T23:04:19.292Z,40.60
2023-01-22T23:06:47.564Z,63.80
2023-01-22T23:09:19.867Z,39.42
2023-01-22T23:11:51.751Z,45.23
2023-01-22T23:14:19.565Z,47.35
2023-01-22T23:16:47.803Z,42.42
2023-01-22T23:19:25.608Z,42.10
2023-01-22T23:21:58.583Z,37.28
2023-01-22T23:24:27.684Z,33.20
2023-01-22T23:26:55.558Z,41.67
2023-01-22T23:29:26.809Z,47.43
2023-01-22T23:31:54.400Z,39.77
2023-01-22T23:34:27.863Z,36.33
2023-01-22T23:36:55.473Z,43.22
2023-01-22T23:39:23.103Z,41.60
2023-01-22T23:41:50.385Z,48.10
2023-01-22T23:44:18.241Z,48.67
2023-01-22T23:46:45.893Z,44.42
2023-01-22T23:49:13.600Z,47.03
2023-01-22T23:51:43.641Z,47.10
2023-01-22T23:54:11.421Z,44.80
2023-01-22T23:56:38.700Z,38.70
2023-01-22T23:59:06.437Z,31.08
